Pagrindinis puslapis
METAR-TAF:

METAR-TAF

Oro uostai :

Vidsel, Švedija

platuma: 65-52N, ilguma: 020-08E, Aukštis: 180 m

Dabartinis oras

Ataskaita buvo paskelbta 33 minutes, ne 13:20 UTC
Ramus vėjas
Temperatūra -3°C
Drėgmė 100%
Slėgis 994 hPa
Matomumas 10 km arba daugiau
rūkana

METAR: ESPE 161320Z AUTO 00000KT 9999 BR FEW004/// OVC006/// M03/M03 Q0994

Laikas: 14:53 (13:53 UTC)


TAF: trūkstamas

Orai ataskaitas ir orų prognozės (METAR, TAF).

turimą stotys yra geltonos ir raudonos taškus žemėlapyje.

Perkelti pele per norėdami pamatyti stoties vardą.

Tada spustelėkite, norėdami matyti oro stebėjimo ir prognozės.

Norėdami pakeisti žemėlapį: spustelėkite ant žalios mygtukų su juodo kryžiaus žemyn,; žalią mygtuką su brūkšneliu, jei norite nutolinti; arba žalių rodyklių gretimoms žemėlapius.


METAR-TAF: